This is the latest recevied weather packets stored in our database for station/object IK2ILW-4. If no packets are shown the sender has not sent any weather packets the latest 10 day(s).
| Time | Temp. | Humidity | Pressure | Rain* | Wind** | Luminosity | Snow |
|---|---|---|---|---|---|---|---|
| 1787742753 | 22.22° C | 67% | 1023.1 hPa | 0.51 mm | - | 777 W/m² | - |
| 1787742466 | 21.67° C | 68% | 1023.1 hPa | 0.51 mm | - | 745 W/m² | - |
| 1787742172 | 21.67° C | 70% | 1023.1 hPa | 0.51 mm | - | 770 W/m² | - |
| 1787741865 | 21.11° C | 72% | 1023.2 hPa | 0.51 mm | - | 775 W/m² | - |
| 1787741553 | 21.11° C | 73% | 1023.2 hPa | 0.51 mm | - | 251 W/m² | - |
| 1787741259 | 21.67° C | 74% | 1023.2 hPa | 0.51 mm | - | 230 W/m² | - |
| 1787740955 | 21.67° C | 74% | 1023.1 hPa | 0.51 mm | - | 517 W/m² | - |
| 1787740655 | 21.11° C | 74% | 1023.1 hPa | 0.51 mm | - | 863 W/m² | - |
| 1787740353 | 20.56° C | 77% | 1023.1 hPa | 0.51 mm | - | 288 W/m² | - |
| 1787740070 | 20° C | 80% | 1023.2 hPa | 0.51 mm | - | 279 W/m² | - |
| 1787739771 | 20° C | 80% | 1023.2 hPa | 0.51 mm | - | 209 W/m² | - |
| 1787739457 | 20° C | 79% | 1023.2 hPa | 0.51 mm | - | 239 W/m² | - |
| 1787739155 | 21.11° C | 76% | 1022.9 hPa | 0.51 mm | - | 239 W/m² | - |
| 1787738855 | 21.67° C | 71% | 1022.9 hPa | 0.51 mm | - | 90 W/m² | - |
| 1787738553 | 22.22° C | 67% | 1022.9 hPa | 0.51 mm | - | 192 W/m² | - |
| 1787738268 | 22.22° C | 67% | 1022.9 hPa | 0.51 mm | - | 132 W/m² | - |
| 1787737964 | 21.67° C | 68% | 1022.9 hPa | 0.51 mm | - | 763 W/m² | - |
| 1787737655 | 21.67° C | 73% | 1022.9 hPa | 0.51 mm | - | 793 W/m² | - |
| 1787737365 | 21.67° C | 74% | 1022.9 hPa | 0.51 mm | - | 703 W/m² | - |
| 1787737060 | 21.67° C | 75% | 1022.9 hPa | 0.51 mm | - | 700 W/m² | - |
| 1787736771 | 21.67° C | 73% | 1022.9 hPa | 0.51 mm | - | 682 W/m² | - |
| 1787736469 | 22.22° C | 66% | 1023 hPa | 0.51 mm | - | 684 W/m² | - |
| 1787736162 | 21.67° C | 65% | 1023 hPa | 0.51 mm | - | 677 W/m² | - |
| 1787735874 | 22.22° C | 65% | 1023 hPa | 0.51 mm | - | 664 W/m² | - |
| 1787735567 | 21.67° C | 64% | 1023 hPa | 0.51 mm | - | 657 W/m² | - |
* Rain since midnight (hover to see other rain measurements)
** Current wind speed in m/s (hover to see current wind gust speed)